Map

Track Data

SID SEASON NUMBER BASIN SUBBASIN NAME ISO_TIME NATURE LAT LON WMO_WIND WMO_PRES WMO_AGENCY TRACK_TYPE DIST2LAND LANDFALL IFLAG USA_AGENCY USA_ATCF_ID USA_LAT USA_LON USA_RECORD USA_STATUS USA_WIND USA_PRES USA_SSHS USA_R34_NE USA_R34_SE USA_R34_SW USA_R34_NW USA_R50_NE USA_R50_SE USA_R50_SW USA_R50_NW USA_R64_NE USA_R64_SE USA_R64_SW USA_R64_NW USA_POCI USA_ROCI USA_RMW USA_EYE TOKYO_LAT TOKYO_LON TOKYO_GRADE TOKYO_WIND TOKYO_PRES TOKYO_R50_DIR TOKYO_R50_LONG TOKYO_R50_SHORT TOKYO_R30_DIR TOKYO_R30_LONG TOKYO_R30_SHORT TOKYO_LAND CMA_LAT CMA_LON CMA_CAT CMA_WIND CMA_PRES HKO_LAT HKO_LON HKO_CAT HKO_WIND HKO_PRES NEWDELHI_LAT NEWDELHI_LON NEWDELHI_GRADE NEWDELHI_WIND NEWDELHI_PRES NEWDELHI_CI NEWDELHI_DP NEWDELHI_POCI REUNION_LAT REUNION_LON REUNION_TYPE REUNION_WIND REUNION_PRES REUNION_TNUM REUNION_CI REUNION_RMW REUNION_R34_NE REUNION_R34_SE REUNION_R34_SW REUNION_R34_NW REUNION_R50_NE REUNION_R50_SE REUNION_R50_SW REUNION_R50_NW REUNION_R64_NE REUNION_R64_SE REUNION_R64_SW REUNION_R64_NW BOM_LAT BOM_LON BOM_TYPE BOM_WIND BOM_PRES BOM_TNUM BOM_CI BOM_RMW BOM_R34_NE BOM_R34_SE BOM_R34_SW BOM_R34_NW BOM_R50_NE BOM_R50_SE BOM_R50_SW BOM_R50_NW BOM_R64_NE BOM_R64_SE BOM_R64_SW BOM_R64_NW BOM_ROCI BOM_POCI BOM_EYE BOM_POS_METHOD BOM_PRES_METHOD NADI_LAT NADI_LON NADI_CAT NADI_WIND NADI_PRES WELLINGTON_LAT WELLINGTON_LON WELLINGTON_WIND WELLINGTON_PRES DS824_LAT DS824_LON DS824_STAGE DS824_WIND DS824_PRES TD9636_LAT TD9636_LON TD9636_STAGE TD9636_WIND TD9636_PRES TD9635_LAT TD9635_LON TD9635_WIND TD9635_PRES TD9635_ROCI NEUMANN_LAT NEUMANN_LON NEUMANN_CLASS NEUMANN_WIND NEUMANN_PRES MLC_LAT MLC_LON MLC_CLASS MLC_WIND MLC_PRES USA_GUST BOM_GUST BOM_GUST_PER REUNION_GUST REUNION_GUST_PER USA_SEAHGT USA_SEARAD_NE USA_SEARAD_SE USA_SEARAD_SW USA_SEARAD_NW STORM_SPEED STORM_DIR
1951038S16067 1951 12 SI MM NOT_NAMED 1951-02-07 06:00:00 NR -15.9000 66.8000 reunion spur-merge 1070 1065 _____O________ -1 -15.9000 66.8000 99 9.90000 1 218
1951038S16067 1951 12 SI MM NOT_NAMED 1951-02-07 09:00:00 NR -15.9543 66.7667 spur-merge 1065 1056 _____P________ -1 -15.9252 66.6876 99 1 212
1951038S16067 1951 12 SI MM NOT_NAMED 1951-02-07 12:00:00 NR -16.0059 66.7259 spur-merge 1056 1056 _____P________ -1 -15.9503 66.5752 99 1 225
1951038S16067 1951 12 SI MM NOT_NAMED 1951-02-07 15:00:00 NR -16.0519 66.6700 spur-merge 1050 1041 _____P________ -1 -15.9754 66.4627 99 2 237
1951038S16067 1951 12 SI MM NOT_NAMED 1951-02-07 18:00:00 NR -16.0896 66.5914 spur-merge 1041 1031 _____P________ -1 -16.0005 66.3502 99 2 251
1951038S16067 1951 12 SI MM NOT_NAMED 1951-02-07 21:00:00 NR -16.1161 66.4826 spur-merge 1031 1012 _____P________ -1 -16.0254 66.2377 99 2 261
1951038S16067 1951 12 SI MM NOT_NAMED 1951-02-08 00:00:00 NR -16.1286 66.3361 spur-merge 1012 1003 _____P________ -1 -16.0504 66.1252 99 3 269
1951038S16067 1951 12 SI MM NOT_NAMED 1951-02-08 03:00:00 NR -16.1242 66.1444 spur-merge 994 975 _____P________ -1 -16.0752 66.0126 99 4 274
1951038S16067 1951 12 SI MM NOT_NAMED 1951-02-08 06:00:00 NR -16.1000 65.9000 reunion spur-merge 975 947 _____O________ -1 -16.1000 65.9000 99 9.90000 5 277
1951038S16067 1951 12 SI MM NOT_NAMED 1951-02-08 09:00:00 NR -16.0573 65.5992 spur-merge 947 925 _____P________ -1 -16.2146 65.5391 99 6 278
1951038S16067 1951 12 SI MM NOT_NAMED 1951-02-08 12:00:00 NR -16.0140 65.2528 spur-merge 925 888 _____P________ -1 -16.3287 65.1776 99 7 275
1951038S16067 1951 12 SI MM NOT_NAMED 1951-02-08 15:00:00 NR -15.9926 64.8750 spur-merge 888 852 _____P________ -1 -16.4422 64.8157 99 7 270
1951038S16067 1951 12 SI MM NOT_NAMED 1951-02-08 18:00:00 NR -16.0153 64.4800 spur-merge 852 810 _____P________ -1 -16.5550 64.4534 99 8 262
1951038S16067 1951 12 SI MM NOT_NAMED 1951-02-08 21:00:00 NR -16.1047 64.0816 spur-merge 810 763 _____P________ -1 -16.6672 64.0906 99 8 250
1951038S16067 1951 12 SI MM NOT_NAMED 1951-02-09 00:00:00 NR -16.2834 63.6932 spur-merge 763 708 _____P________ -1 -16.7788 63.7274 99 9 237
1951038S16067 1951 12 SI MM NOT_NAMED 1951-02-09 03:00:00 NR -16.5742 63.3282 spur-merge 708 657 _____P________ -1 -16.8897 63.3639 99 10 223
1951038S16067 1951 12 SI MM NOT_NAMED 1951-02-09 06:00:00 NR -17.0000 63.0000 reunion spur-merge 657 590 _____O________ -1 -17.0000 63.0000 99 9.90000 13 207
1951038S16067 1951 12 SI MM NOT_NAMED 1951-02-09 09:00:00 NR -17.7360 62.7220 spur-merge 590 528 ______________ -1 99 17 197
1951038S16067 1951 12 SI MM NOT_NAMED 1951-02-09 12:00:00 NR -18.6241 62.4700 spur-merge 528 476 ______________ -1 99 19 193
1951038S16067 1951 12 SI MM NOT_NAMED 1951-02-09 15:00:00 NR -19.6157 62.2452 spur-merge 466 448 ______________ -1 99 21 191
1951038S16067 1951 12 SI MM NOT_NAMED 1951-02-09 18:00:00 NR -20.6616 62.0493 spur-merge 439 439 ______________ -1 99 21 189
1951038S16067 1951 12 SI MM NOT_NAMED 1951-02-09 21:00:00 NR -21.7123 61.8843 spur-merge 453 ______________ -1 99 21 188

About IBTrACS Database

This database is a web-friendly format of International Best Track Archive for Climate Stewardship (IBTrACS), a global best track data archive curated by NOAA dating back to 1842.

Updated: 2021-10-08